createdAt,value
2023-03-06T00:01:00.814Z,39.40
2023-03-06T00:03:28.590Z,35.03
2023-03-06T00:05:57.506Z,35.78
2023-03-06T00:08:26.595Z,38.38
2023-03-06T00:10:54.707Z,36.35
2023-03-06T00:13:22.418Z,36.40
2023-03-06T00:15:49.773Z,36.20
2023-03-06T00:18:17.027Z,38.83
2023-03-06T00:20:44.344Z,36.05
2023-03-06T00:23:12.477Z,32.80
2023-03-06T00:25:43.132Z,33.45
2023-03-06T00:28:12.324Z,36.10
2023-03-06T00:30:40.069Z,37.28
2023-03-06T00:33:07.843Z,33.92
2023-03-06T00:35:35.203Z,32.95
2023-03-06T00:38:05.287Z,31.67
2023-03-06T00:40:33.584Z,34.20
2023-03-06T00:43:01.094Z,33.90
2023-03-06T00:45:28.358Z,34.22
2023-03-06T00:47:55.654Z,36.15
2023-03-06T00:50:23.020Z,34.97
2023-03-06T00:52:50.417Z,37.50
2023-03-06T00:55:17.807Z,34.90
2023-03-06T00:57:45.095Z,38.03
2023-03-06T01:00:13.186Z,35.67
2023-03-06T01:02:41.339Z,32.65
2023-03-06T01:05:09.693Z,35.28
2023-03-06T01:07:37.996Z,34.70
2023-03-06T01:10:08.150Z,36.60
2023-03-06T01:12:35.670Z,38.45
2023-03-06T01:15:04.044Z,36.53
2023-03-06T01:17:31.405Z,38.72
2023-03-06T01:19:58.838Z,34.65
2023-03-06T01:22:26.313Z,35.47
2023-03-06T01:24:53.614Z,39.90
2023-03-06T01:27:22.050Z,37.78
2023-03-06T01:29:49.547Z,40.15
2023-03-06T01:32:17.165Z,40.45
2023-03-06T01:34:44.495Z,41.75
2023-03-06T01:37:11.841Z,41.38
2023-03-06T01:39:39.294Z,42.58
2023-03-06T01:42:07.080Z,38.05
2023-03-06T01:44:34.444Z,39.35
2023-03-06T01:47:02.420Z,38.05
2023-03-06T01:49:35.543Z,37.63
2023-03-06T01:52:15.213Z,39.25
2023-03-06T01:54:45.766Z,40.58
2023-03-06T01:57:18.089Z,34.22
2023-03-06T01:59:48.771Z,38.20
2023-03-06T02:02:16.482Z,35.03
2023-03-06T02:04:44.292Z,36.03
2023-03-06T02:07:12.330Z,35.65
2023-03-06T02:09:39.945Z,38.20
2023-03-06T02:12:15.568Z,40.45
2023-03-06T02:14:43.688Z,46.28
2023-03-06T02:17:13.280Z,35.75
2023-03-06T02:20:03.750Z,35.83
2023-03-06T02:23:01.053Z,34.95
2023-03-06T02:25:32.073Z,37.90
2023-03-06T02:28:01.687Z,37.92
2023-03-06T02:30:31.571Z,39.20
2023-03-06T02:32:59.026Z,36.08
2023-03-06T02:35:30.346Z,36.00
2023-03-06T02:37:59.353Z,37.33
2023-03-06T02:40:26.737Z,37.95
2023-03-06T02:42:58.612Z,39.63
2023-03-06T02:45:42.614Z,38.35
2023-03-06T02:48:10.132Z,36.08
2023-03-06T02:50:37.795Z,40.33
2023-03-06T02:53:05.971Z,42.20
2023-03-06T02:55:33.984Z,35.55
2023-03-06T02:58:02.149Z,36.78
2023-03-06T03:00:30.472Z,37.72
2023-03-06T03:02:58.032Z,33.78
2023-03-06T03:05:26.516Z,38.90
2023-03-06T03:08:00.105Z,35.85
2023-03-06T03:10:28.620Z,36.10
2023-03-06T03:12:56.127Z,35.28
2023-03-06T03:15:25.478Z,36.60
2023-03-06T03:17:53.178Z,35.15
2023-03-06T03:20:22.064Z,37.90
2023-03-06T03:22:51.318Z,38.45
2023-03-06T03:25:19.709Z,36.30
2023-03-06T03:27:47.782Z,37.08
2023-03-06T03:30:15.858Z,37.58
2023-03-06T03:32:43.830Z,39.63
2023-03-06T03:35:13.169Z,44.30
2023-03-06T03:37:44.929Z,41.45
2023-03-06T03:40:13.298Z,38.10
2023-03-06T03:42:40.965Z,41.78
2023-03-06T03:45:11.686Z,39.80
2023-03-06T03:47:40.778Z,45.28
2023-03-06T03:50:09.144Z,40.92
2023-03-06T03:52:37.339Z,44.67
2023-03-06T03:55:05.552Z,42.22
2023-03-06T03:57:33.374Z,45.83
2023-03-06T04:00:01.774Z,46.42
2023-03-06T04:02:42.149Z,41.72
2023-03-06T04:05:24.352Z,45.45
2023-03-06T04:07:51.600Z,47.72
2023-03-06T04:10:19.785Z,46.78
2023-03-06T04:12:50.626Z,42.13
2023-03-06T04:15:18.173Z,41.80
2023-03-06T04:17:47.207Z,40.47
2023-03-06T04:20:18.515Z,42.88
2023-03-06T04:22:47.365Z,41.33
2023-03-06T04:25:14.758Z,46.67
2023-03-06T04:27:42.270Z,42.35
2023-03-06T04:30:14.033Z,43.85
2023-03-06T04:32:41.865Z,43.67
2023-03-06T04:35:12.632Z,41.05
2023-03-06T04:37:50.886Z,45.53
2023-03-06T04:40:29.544Z,41.45
2023-03-06T04:42:58.773Z,47.70
2023-03-06T04:45:27.511Z,46.57
2023-03-06T04:47:55.397Z,44.20
2023-03-06T04:50:24.065Z,38.00
2023-03-06T04:52:52.056Z,39.92
2023-03-06T04:55:19.922Z,44.47
2023-03-06T04:57:47.754Z,41.42
2023-03-06T05:00:19.391Z,41.28
2023-03-06T05:02:47.047Z,45.42
2023-03-06T05:05:15.245Z,39.78
2023-03-06T05:07:42.778Z,44.92
2023-03-06T05:10:15.337Z,40.05
2023-03-06T05:12:43.113Z,41.47
2023-03-06T05:15:11.717Z,44.13
2023-03-06T05:17:39.115Z,45.33
2023-03-06T05:20:09.731Z,44.40
2023-03-06T05:22:37.174Z,47.38
2023-03-06T05:25:05.306Z,41.28
2023-03-06T05:27:32.671Z,41.53
2023-03-06T05:30:00.132Z,47.15
2023-03-06T05:32:27.692Z,40.88
2023-03-06T05:34:55.332Z,45.00
2023-03-06T05:37:23.250Z,44.92
2023-03-06T05:39:51.076Z,37.92
2023-03-06T05:42:18.834Z,42.38
2023-03-06T05:44:46.615Z,43.38
2023-03-06T05:47:14.299Z,41.92
2023-03-06T05:49:41.592Z,42.30
2023-03-06T05:52:09.114Z,41.97
2023-03-06T05:54:37.277Z,43.47
2023-03-06T05:57:05.333Z,43.15
2023-03-06T05:59:33.289Z,40.55
2023-03-06T06:02:01.229Z,42.10
2023-03-06T06:04:28.603Z,37.47
2023-03-06T06:06:58.005Z,40.45
2023-03-06T06:09:26.140Z,36.45
2023-03-06T06:11:56.211Z,35.75
2023-03-06T06:16:51.954Z,40.75
2023-03-06T06:19:20.225Z,44.33
2023-03-06T06:21:49.916Z,37.08
2023-03-06T06:24:19.397Z,38.15
2023-03-06T06:26:47.332Z,35.58
2023-03-06T06:29:14.852Z,40.03
2023-03-06T06:31:42.442Z,35.03
2023-03-06T06:34:11.495Z,37.90
2023-03-06T06:36:39.587Z,40.70
2023-03-06T06:39:08.103Z,38.28
2023-03-06T06:41:59.501Z,38.83
2023-03-06T06:44:23.197Z,34.90
2023-03-06T06:47:21.378Z,45.63
2023-03-06T06:49:38.162Z,34.75
2023-03-06T06:52:06.297Z,40.10
2023-03-06T06:54:36.842Z,36.47
2023-03-06T06:57:04.240Z,39.60
2023-03-06T06:59:31.835Z,37.78
2023-03-06T07:01:59.150Z,38.78
2023-03-06T07:04:26.392Z,38.63
2023-03-06T07:06:56.170Z,39.25
2023-03-06T07:09:23.787Z,38.13
2023-03-06T07:11:51.171Z,35.00
2023-03-06T07:14:18.689Z,35.42
2023-03-06T07:16:46.104Z,37.55
2023-03-06T07:19:13.505Z,35.45
2023-03-06T07:21:40.923Z,38.15
2023-03-06T07:24:08.349Z,35.63
2023-03-06T07:26:35.834Z,34.83
2023-03-06T07:29:05.863Z,38.63
2023-03-06T07:31:35.482Z,34.72
2023-03-06T07:34:04.896Z,36.72
2023-03-06T07:36:33.914Z,38.00
2023-03-06T07:39:01.391Z,41.85
2023-03-06T07:41:28.644Z,38.20
2023-03-06T07:43:55.947Z,33.60
2023-03-06T07:46:23.521Z,35.13
2023-03-06T07:48:51.023Z,35.15
2023-03-06T07:51:20.645Z,24.33
2023-03-06T07:53:49.011Z,29.77
2023-03-06T07:56:16.541Z,38.88
2023-03-06T07:58:45.630Z,30.42
2023-03-06T08:01:16.206Z,29.07
2023-03-06T08:03:44.127Z,28.25
2023-03-06T08:06:14.262Z,31.73
2023-03-06T08:11:11.064Z,32.85
2023-03-06T08:13:39.112Z,31.95
2023-03-06T08:16:07.111Z,30.75
2023-03-06T08:18:35.001Z,35.55
2023-03-06T08:21:06.930Z,28.52
2023-03-06T08:23:35.109Z,29.60
2023-03-06T08:26:05.900Z,30.30
2023-03-06T08:28:33.429Z,34.78
2023-03-06T08:31:08.896Z,31.02
2023-03-06T08:33:36.853Z,31.60
2023-03-06T08:36:04.808Z,32.85
2023-03-06T08:38:32.199Z,30.13
2023-03-06T08:40:59.631Z,38.97
2023-03-06T08:43:27.191Z,29.42
2023-03-06T08:45:56.304Z,29.20
2023-03-06T08:48:24.159Z,33.75
2023-03-06T08:50:51.678Z,32.08
2023-03-06T08:53:19.103Z,33.75
2023-03-06T08:55:46.800Z,30.00
2023-03-06T08:58:14.216Z,34.10
2023-03-06T09:00:41.574Z,34.58
2023-03-06T09:03:09.276Z,31.02
2023-03-06T09:05:37.060Z,31.98
2023-03-06T09:08:05.066Z,31.25
2023-03-06T09:10:32.352Z,36.45
2023-03-06T09:12:59.781Z,34.05
2023-03-06T09:15:27.347Z,29.48
2023-03-06T09:17:54.882Z,38.92
2023-03-06T09:20:22.278Z,31.38
2023-03-06T09:22:49.560Z,32.25
2023-03-06T09:25:22.509Z,34.67
2023-03-06T09:28:01.814Z,37.88
2023-03-06T09:30:36.645Z,33.53
2023-03-06T09:33:04.200Z,30.60
2023-03-06T09:35:31.785Z,34.85
2023-03-06T09:37:59.109Z,29.05
2023-03-06T09:40:51.857Z,30.55
2023-03-06T09:43:22.232Z,29.50
2023-03-06T09:45:49.644Z,29.05
2023-03-06T09:48:17.863Z,29.77
2023-03-06T09:50:51.963Z,32.58
2023-03-06T09:53:39.143Z,32.35
2023-03-06T09:56:16.901Z,32.80
2023-03-06T09:58:48.902Z,31.58
2023-03-06T10:01:19.397Z,40.13
2023-03-06T10:03:58.394Z,31.80
2023-03-06T10:06:36.691Z,37.75
2023-03-06T10:09:14.161Z,35.90
2023-03-06T10:11:53.110Z,30.25
2023-03-06T10:14:29.543Z,29.13
2023-03-06T10:16:58.508Z,29.15
2023-03-06T10:19:36.618Z,29.67
2023-03-06T10:22:04.207Z,36.05
2023-03-06T10:24:51.362Z,27.80
2023-03-06T10:27:34.949Z,29.33
2023-03-06T10:30:33.470Z,30.52
2023-03-06T10:33:30.112Z,28.23
2023-03-06T10:35:58.232Z,22.38
2023-03-06T10:38:31.729Z,24.23
2023-03-06T10:41:14.532Z,18.40
2023-03-06T10:43:44.182Z,18.15
2023-03-06T10:46:14.629Z,18.90
2023-03-06T10:48:42.711Z,22.75
2023-03-06T10:51:19.152Z,20.63
2023-03-06T10:53:57.609Z,25.10
2023-03-06T10:56:34.824Z,21.80
2023-03-06T10:59:25.356Z,20.92
2023-03-06T11:01:57.910Z,24.75
2023-03-06T11:04:33.604Z,29.50
2023-03-06T11:07:11.972Z,24.15
2023-03-06T11:09:39.486Z,23.60
2023-03-06T11:12:27.838Z,21.15
2023-03-06T11:15:10.282Z,19.58
2023-03-06T11:17:49.317Z,17.50
2023-03-06T11:20:27.037Z,18.92
2023-03-06T11:23:13.275Z,19.88
2023-03-06T11:25:43.701Z,16.67
2023-03-06T11:28:40.366Z,20.05
2023-03-06T11:31:16.026Z,17.67
2023-03-06T11:33:59.024Z,22.88
2023-03-06T11:36:31.607Z,22.08
2023-03-06T11:38:59.586Z,21.95
2023-03-06T11:41:37.344Z,18.73
2023-03-06T11:44:19.948Z,17.88
2023-03-06T11:46:51.145Z,18.17
2023-03-06T11:49:29.188Z,20.67
2023-03-06T11:51:59.655Z,17.25
2023-03-06T11:54:29.370Z,17.25
2023-03-06T11:57:00.192Z,20.60
2023-03-06T11:59:30.499Z,21.75
2023-03-06T12:02:30.975Z,23.42
2023-03-06T12:05:10.611Z,18.15
2023-03-06T12:08:16.954Z,17.85
2023-03-06T12:13:55.410Z,34.38
2023-03-06T12:16:35.348Z,28.70
2023-03-06T12:19:27.625Z,24.55
2023-03-06T12:22:31.296Z,18.65
2023-03-06T12:25:28.430Z,18.63
2023-03-06T12:28:11.187Z,20.40
2023-03-06T12:31:03.149Z,17.25
2023-03-06T12:33:52.267Z,19.58
2023-03-06T12:36:31.882Z,17.47
2023-03-06T12:39:35.701Z,27.92
2023-03-06T12:42:22.612Z,19.67
2023-03-06T12:45:04.413Z,23.58
2023-03-06T12:47:34.354Z,22.58
2023-03-06T12:50:07.627Z,22.27
2023-03-06T12:52:35.667Z,21.63
2023-03-06T12:55:06.752Z,18.75
2023-03-06T12:57:34.101Z,20.67
2023-03-06T13:00:01.593Z,22.73
2023-03-06T13:02:56.755Z,21.83
2023-03-06T13:05:31.673Z,21.23
2023-03-06T13:08:39.833Z,20.73
2023-03-06T13:11:17.570Z,26.10
2023-03-06T13:13:46.508Z,22.52
2023-03-06T13:16:13.931Z,18.67
2023-03-06T13:18:49.143Z,16.83
2023-03-06T13:21:42.634Z,18.80
2023-03-06T13:24:26.827Z,18.90
2023-03-06T13:26:55.788Z,23.15
2023-03-06T13:29:38.483Z,25.23
2023-03-06T13:32:13.659Z,32.45
2023-03-06T13:34:43.110Z,23.65
2023-03-06T13:37:20.081Z,26.60
2023-03-06T13:39:59.836Z,20.85
2023-03-06T13:42:29.725Z,17.45
2023-03-06T13:44:58.646Z,19.90
2023-03-06T13:47:59.004Z,17.65
2023-03-06T13:50:35.827Z,21.33
2023-03-06T13:53:46.694Z,18.48
2023-03-06T13:56:32.633Z,30.52
2023-03-06T13:59:32.258Z,18.70
2023-03-06T14:02:38.747Z,19.52
2023-03-06T14:05:17.564Z,19.15
2023-03-06T14:08:03.441Z,16.90
2023-03-06T14:10:34.687Z,15.80
2023-03-06T14:13:06.331Z,18.27
2023-03-06T14:15:42.429Z,19.95
2023-03-06T14:18:12.697Z,18.70
2023-03-06T14:20:40.089Z,17.27
2023-03-06T14:23:30.513Z,18.88
2023-03-06T14:26:00.929Z,15.85
2023-03-06T14:28:30.462Z,18.05
2023-03-06T14:31:00.182Z,17.80
2023-03-06T14:33:32.666Z,18.15
2023-03-06T14:36:03.815Z,16.80
2023-03-06T14:38:35.743Z,13.25
2023-03-06T14:41:05.346Z,14.07
2023-03-06T14:43:32.955Z,16.45
2023-03-06T14:46:02.617Z,18.00
2023-03-06T14:48:42.236Z,15.63
2023-03-06T14:51:23.568Z,14.57
2023-03-06T14:53:52.706Z,18.10
2023-03-06T14:56:25.624Z,14.13
2023-03-06T14:59:03.338Z,15.35
2023-03-06T15:01:50.246Z,16.38
2023-03-06T15:04:47.772Z,15.55
2023-03-06T15:07:18.803Z,17.35
2023-03-06T15:09:49.823Z,16.23
2023-03-06T15:12:20.260Z,14.57
2023-03-06T15:14:59.712Z,16.38
2023-03-06T15:17:27.123Z,17.65
2023-03-06T15:19:56.367Z,12.55
2023-03-06T15:22:30.987Z,14.80
2023-03-06T15:25:20.618Z,15.15
2023-03-06T15:27:51.048Z,12.88
2023-03-06T15:30:29.689Z,14.55
2023-03-06T15:33:26.053Z,16.17
2023-03-06T15:36:04.519Z,11.90
2023-03-06T15:38:34.333Z,14.93
2023-03-06T15:41:03.552Z,15.75
2023-03-06T15:43:39.437Z,17.37
2023-03-06T15:46:07.808Z,13.25
2023-03-06T15:48:35.629Z,13.77
2023-03-06T15:51:03.697Z,15.02
2023-03-06T15:53:31.183Z,13.90
2023-03-06T15:55:58.823Z,13.05
2023-03-06T15:58:26.986Z,14.27
2023-03-06T16:00:54.317Z,13.98
2023-03-06T16:03:21.722Z,18.02
2023-03-06T16:05:49.159Z,13.20
2023-03-06T16:08:16.893Z,12.68
2023-03-06T16:10:44.776Z,14.63
2023-03-06T16:13:15.494Z,14.07
2023-03-06T16:15:47.418Z,15.38
2023-03-06T16:18:14.932Z,15.32
2023-03-06T16:20:42.557Z,16.63
2023-03-06T16:23:10.912Z,13.77
2023-03-06T16:25:41.505Z,15.65
2023-03-06T16:28:14.380Z,12.60
2023-03-06T16:30:43.295Z,14.32
2023-03-06T16:33:13.331Z,14.50
2023-03-06T16:35:41.266Z,13.90
2023-03-06T16:38:10.267Z,16.75
2023-03-06T16:40:41.147Z,12.10
2023-03-06T16:43:10.548Z,12.70
2023-03-06T16:45:39.664Z,19.43
2023-03-06T16:48:07.867Z,14.98
2023-03-06T16:50:40.086Z,12.43
2023-03-06T16:53:08.209Z,14.10
2023-03-06T16:55:35.558Z,14.18
2023-03-06T16:58:02.934Z,19.42
2023-03-06T17:00:33.176Z,12.80
2023-03-06T17:03:01.700Z,11.45
2023-03-06T17:05:29.555Z,11.95
2023-03-06T17:07:57.000Z,12.73
2023-03-06T17:10:26.547Z,12.07
2023-03-06T17:12:54.385Z,9.10
2023-03-06T17:15:21.881Z,8.38
2023-03-06T17:17:49.362Z,9.23
2023-03-06T17:20:17.137Z,11.57
2023-03-06T17:22:44.658Z,8.57
2023-03-06T17:25:12.084Z,8.85
2023-03-06T17:27:39.560Z,7.00
2023-03-06T17:30:07.547Z,10.57
2023-03-06T17:32:35.258Z,9.25
2023-03-06T17:35:02.539Z,10.05
2023-03-06T17:37:29.792Z,8.80
2023-03-06T17:39:57.104Z,9.65
2023-03-06T17:42:24.534Z,10.18
2023-03-06T17:44:53.060Z,11.10
2023-03-06T17:47:20.357Z,11.60
2023-03-06T17:49:47.860Z,10.55
2023-03-06T17:52:15.169Z,12.45
2023-03-06T17:54:42.687Z,12.00
2023-03-06T17:57:09.961Z,10.85
2023-03-06T17:59:37.496Z,11.45
2023-03-06T18:02:06.390Z,8.93
2023-03-06T18:04:33.913Z,15.60
2023-03-06T18:07:01.249Z,10.02
2023-03-06T18:09:28.549Z,8.68
2023-03-06T18:11:55.930Z,11.63
2023-03-06T18:14:23.450Z,13.95
2023-03-06T18:16:50.950Z,10.88
2023-03-06T18:19:18.378Z,11.15
2023-03-06T18:21:47.416Z,11.93
2023-03-06T18:24:14.797Z,13.05
2023-03-06T18:26:43.044Z,12.68
2023-03-06T18:29:10.997Z,12.05
2023-03-06T18:31:40.526Z,11.98
2023-03-06T18:34:17.553Z,12.82
2023-03-06T18:36:47.352Z,13.88
2023-03-06T18:41:43.207Z,11.70
2023-03-06T18:44:15.790Z,9.68
2023-03-06T18:46:43.836Z,11.30
2023-03-06T18:49:12.551Z,10.55
2023-03-06T18:51:40.189Z,13.05
2023-03-06T18:54:07.980Z,11.68
2023-03-06T18:56:35.482Z,12.15
2023-03-06T18:59:04.709Z,10.80
2023-03-06T19:01:32.571Z,13.77
2023-03-06T19:04:02.060Z,9.25
2023-03-06T19:06:29.629Z,14.60
2023-03-06T19:08:58.835Z,11.93
2023-03-06T19:11:27.122Z,11.20
2023-03-06T19:13:55.034Z,12.27
2023-03-06T19:16:24.526Z,16.73
2023-03-06T19:18:52.461Z,13.10
2023-03-06T19:21:21.184Z,12.98
2023-03-06T19:23:49.750Z,18.38
2023-03-06T19:26:20.841Z,12.65
2023-03-06T19:28:48.783Z,11.75
2023-03-06T19:31:21.448Z,14.43
2023-03-06T19:33:49.638Z,12.07
2023-03-06T19:36:18.437Z,12.60
2023-03-06T19:38:50.514Z,13.27
2023-03-06T19:41:18.284Z,13.60
2023-03-06T19:43:51.041Z,12.63
2023-03-06T19:46:18.994Z,12.05
2023-03-06T19:48:46.377Z,11.45
2023-03-06T19:51:14.041Z,18.45
2023-03-06T19:53:41.382Z,12.02
2023-03-06T19:56:09.789Z,15.30
2023-03-06T19:58:37.750Z,12.52
2023-03-06T20:01:06.161Z,15.60
2023-03-06T20:03:33.685Z,11.65
2023-03-06T20:06:01.640Z,13.10
2023-03-06T20:08:29.472Z,12.73
2023-03-06T20:10:56.882Z,16.77
2023-03-06T20:13:24.867Z,14.65
2023-03-06T20:15:52.308Z,12.13
2023-03-06T20:18:19.768Z,14.85
2023-03-06T20:21:00.766Z,12.15
2023-03-06T20:23:29.010Z,14.38
2023-03-06T20:25:56.396Z,12.70
2023-03-06T20:28:23.786Z,13.88
2023-03-06T20:30:51.202Z,16.65
2023-03-06T20:33:21.169Z,16.10
2023-03-06T20:35:48.921Z,22.92
2023-03-06T20:38:16.180Z,19.85
2023-03-06T20:40:43.863Z,25.33
2023-03-06T20:43:11.421Z,15.55
2023-03-06T20:45:38.893Z,22.15
2023-03-06T20:48:06.309Z,22.65
2023-03-06T20:50:33.665Z,18.98
2023-03-06T20:53:01.092Z,15.68
2023-03-06T20:55:28.712Z,17.73
2023-03-06T20:57:56.029Z,16.30
2023-03-06T21:00:23.281Z,17.52
2023-03-06T21:02:50.602Z,19.08
2023-03-06T21:05:18.048Z,17.40
2023-03-06T21:07:45.425Z,18.35
2023-03-06T21:10:14.566Z,17.05
2023-03-06T21:12:41.858Z,15.93
2023-03-06T21:15:09.543Z,18.63
2023-03-06T21:17:39.859Z,16.98
2023-03-06T21:20:07.992Z,16.85
2023-03-06T21:22:35.653Z,21.02
2023-03-06T21:25:03.712Z,19.17
2023-03-06T21:27:31.043Z,17.48
2023-03-06T21:29:58.244Z,18.88
2023-03-06T21:32:25.582Z,16.40
2023-03-06T21:34:53.043Z,16.48
2023-03-06T21:37:20.517Z,17.30
2023-03-06T21:39:48.058Z,15.48
2023-03-06T21:42:15.347Z,16.02
2023-03-06T21:44:42.597Z,17.23
2023-03-06T21:47:10.034Z,17.67
2023-03-06T21:49:37.549Z,20.33
2023-03-06T21:52:05.365Z,20.38
2023-03-06T21:54:32.586Z,24.20
2023-03-06T21:57:00.048Z,18.60
2023-03-06T21:59:27.473Z,17.67
2023-03-06T22:01:54.872Z,15.43
2023-03-06T22:04:22.159Z,20.58
2023-03-06T22:06:49.855Z,19.60
2023-03-06T22:09:19.098Z,17.75
2023-03-06T22:11:46.590Z,19.63
2023-03-06T22:14:14.786Z,20.77
2023-03-06T22:16:42.250Z,16.00
2023-03-06T22:19:09.740Z,19.23
2023-03-06T22:21:38.594Z,19.92
2023-03-06T22:24:06.274Z,17.33
2023-03-06T22:26:33.538Z,20.52
2023-03-06T22:29:00.908Z,17.60
2023-03-06T22:31:29.138Z,19.98
2023-03-06T22:33:58.517Z,18.50
2023-03-06T22:36:26.123Z,19.75
2023-03-06T22:38:55.645Z,17.27
2023-03-06T22:41:23.572Z,14.70
2023-03-06T22:43:50.950Z,18.42
2023-03-06T22:46:18.371Z,18.20
2023-03-06T22:48:46.018Z,19.70
2023-03-06T22:51:16.021Z,17.58
2023-03-06T22:53:44.234Z,20.58
2023-03-06T22:56:14.846Z,19.10
2023-03-06T22:58:44.662Z,17.83
2023-03-06T23:01:23.442Z,19.98
2023-03-06T23:03:53.108Z,16.52
2023-03-06T23:06:35.210Z,18.58
2023-03-06T23:09:06.957Z,18.63
2023-03-06T23:14:38.436Z,20.73
2023-03-06T23:17:24.963Z,20.45
2023-03-06T23:20:12.065Z,20.27
2023-03-06T23:22:58.142Z,25.08
2023-03-06T23:25:44.374Z,21.85
2023-03-06T23:28:12.338Z,21.92
2023-03-06T23:30:40.095Z,20.50
2023-03-06T23:33:08.167Z,20.85
2023-03-06T23:35:36.880Z,19.00
2023-03-06T23:38:04.659Z,20.98
2023-03-06T23:40:33.599Z,21.02
2023-03-06T23:43:01.114Z,21.30
2023-03-06T23:45:28.439Z,21.02
2023-03-06T23:47:56.399Z,25.13
2023-03-06T23:50:26.082Z,20.48
2023-03-06T23:52:54.380Z,19.88
2023-03-06T23:55:22.149Z,19.67
2023-03-06T23:57:49.634Z,21.40
